createdAt,value
2018-03-03T00:00:45.303Z,98678.43
2018-03-03T00:03:13.383Z,98687.23
2018-03-03T00:05:41.429Z,98684.27
2018-03-03T00:08:09.561Z,98683.53
2018-03-03T00:10:37.678Z,98683.02
2018-03-03T00:13:06.194Z,98682.84
2018-03-03T00:15:34.274Z,98674.40
2018-03-03T00:18:02.421Z,98676.75
2018-03-03T00:20:30.434Z,98674.71
2018-03-03T00:22:58.515Z,98681.33
2018-03-03T00:25:26.622Z,98666.51
2018-03-03T00:27:54.557Z,98669.55
2018-03-03T00:30:22.527Z,98673.41
2018-03-03T00:32:50.482Z,98669.75
2018-03-03T00:35:18.567Z,98661.97
2018-03-03T00:37:46.640Z,98666.20
2018-03-03T00:40:14.600Z,98662.23
2018-03-03T00:42:42.686Z,98667.67
2018-03-03T00:45:10.647Z,98666.98
2018-03-03T00:47:38.727Z,98669.79
2018-03-03T00:50:06.812Z,98666.73
2018-03-03T00:52:34.896Z,98672.39
2018-03-03T00:55:02.860Z,98667.95
2018-03-03T00:57:30.775Z,98662.95
2018-03-03T00:59:58.891Z,98657.56
2018-03-03T01:02:26.977Z,98659.83
2018-03-03T01:04:55.063Z,98668.59
2018-03-03T01:07:23.022Z,98661.56
2018-03-03T01:09:50.980Z,98659.86
2018-03-03T01:14:51.824Z,98662.52
2018-03-03T01:17:19.654Z,98657.89
2018-03-03T01:19:47.621Z,98670.01
2018-03-03T01:22:15.698Z,98661.80
2018-03-03T01:24:43.665Z,98663.89
2018-03-03T01:27:11.628Z,98658.45
2018-03-03T01:29:39.584Z,98651.19
2018-03-03T01:32:07.552Z,98646.68
2018-03-03T01:34:35.509Z,98645.28
2018-03-03T01:37:03.472Z,98642.26
2018-03-03T01:39:31.316Z,98646.95
2018-03-03T01:41:59.270Z,98643.61
2018-03-03T01:44:27.235Z,98638.04
2018-03-03T01:46:55.328Z,98633.98
2018-03-03T01:49:23.399Z,98640.44
2018-03-03T01:51:51.364Z,98638.20
2018-03-03T01:54:19.200Z,98645.20
2018-03-03T01:56:47.279Z,98640.35
2018-03-03T01:59:15.248Z,98641.84
2018-03-03T02:01:43.323Z,98647.59
2018-03-03T02:04:11.165Z,98644.95
2018-03-03T02:06:39.125Z,98643.41
2018-03-03T02:09:07.092Z,98643.23
2018-03-03T02:11:35.056Z,98642.23
2018-03-03T02:14:02.899Z,98632.47
2018-03-03T02:16:30.971Z,98627.03
2018-03-03T02:18:59.063Z,98629.81
2018-03-03T02:21:27.006Z,98616.06
2018-03-03T02:26:28.934Z,98608.70
2018-03-03T02:28:56.772Z,98601.72
2018-03-03T02:31:24.625Z,98596.25
2018-03-03T02:33:52.702Z,98603.92
2018-03-03T02:36:20.664Z,98606.05
2018-03-03T02:38:48.623Z,98589.23
2018-03-03T02:41:16.458Z,98596.88
2018-03-03T02:43:44.425Z,98591.44
2018-03-03T02:46:12.270Z,98585.39
2018-03-03T02:48:40.360Z,98593.88
2018-03-03T02:51:08.190Z,98589.50
2018-03-03T02:53:36.147Z,98586.03
2018-03-03T02:56:04.235Z,98584.09
2018-03-03T02:58:32.188Z,98583.52
2018-03-03T03:01:00.717Z,98587.19
2018-03-03T03:03:28.706Z,98583.36
2018-03-03T03:05:56.677Z,98580.17
2018-03-03T03:08:24.635Z,98568.92
2018-03-03T03:10:52.483Z,98566.41
2018-03-03T03:13:20.446Z,98566.00
2018-03-03T03:15:48.516Z,98563.50
2018-03-03T03:18:16.483Z,98559.32
2018-03-03T03:20:44.558Z,98559.27
2018-03-03T03:23:12.531Z,98551.59
2018-03-03T03:25:40.444Z,98545.59
2018-03-03T03:28:08.443Z,98542.72
2018-03-03T03:30:36.292Z,98541.15
2018-03-03T03:33:04.448Z,98536.67
2018-03-03T03:35:32.443Z,98541.58
2018-03-03T03:38:00.409Z,98537.39
2018-03-03T03:40:28.492Z,98543.59
2018-03-03T03:42:56.652Z,98538.37
2018-03-03T03:45:24.653Z,98539.70
2018-03-03T03:47:52.625Z,98539.13
2018-03-03T03:50:20.575Z,98529.22
2018-03-03T03:52:48.512Z,98535.17
2018-03-03T03:55:16.513Z,98537.87
2018-03-03T03:57:44.470Z,98536.27
2018-03-03T04:00:12.780Z,98537.73
2018-03-03T04:02:40.742Z,98538.23
2018-03-03T04:05:08.703Z,98535.11
2018-03-03T04:07:36.624Z,98534.58
2018-03-03T04:10:04.630Z,98527.30
2018-03-03T04:12:32.490Z,98525.16
2018-03-03T04:15:00.555Z,98527.52
2018-03-03T04:17:28.511Z,98526.04
2018-03-03T04:19:56.593Z,98525.00
2018-03-03T04:22:24.630Z,98520.20
2018-03-03T04:24:52.750Z,98523.76
2018-03-03T04:27:20.711Z,98524.02
2018-03-03T04:29:48.675Z,98516.70
2018-03-03T04:32:16.644Z,98516.13
2018-03-03T04:34:44.714Z,98522.75
2018-03-03T04:37:12.793Z,98520.34
2018-03-03T04:39:40.660Z,98509.19
2018-03-03T04:42:08.602Z,98514.67
2018-03-03T04:44:36.560Z,98505.69
2018-03-03T04:47:04.518Z,98508.16
2018-03-03T04:49:32.490Z,98500.64
2018-03-03T04:52:00.562Z,98501.13
2018-03-03T04:54:28.648Z,98506.86
2018-03-03T04:56:56.604Z,98501.68
2018-03-03T04:59:26.124Z,98491.89
2018-03-03T05:02:08.975Z,98496.16
2018-03-03T05:04:42.573Z,98489.59
2018-03-03T05:10:10.090Z,98493.92
2018-03-03T05:12:40.243Z,98489.23
2018-03-03T05:15:24.679Z,98493.14
2018-03-03T05:21:04.887Z,98485.31
2018-03-03T05:23:38.340Z,98489.73
2018-03-03T05:26:11.618Z,98491.30
2018-03-03T05:31:53.200Z,98481.40
2018-03-03T05:37:31.472Z,98462.29
2018-03-03T05:43:24.384Z,98455.98
2018-03-03T05:45:57.536Z,98454.56
2018-03-03T05:48:30.916Z,98448.95
2018-03-03T05:51:04.057Z,98450.12
2018-03-03T05:53:37.391Z,98453.89
2018-03-03T05:56:06.867Z,98456.57
2018-03-03T05:58:40.284Z,98454.23
2018-03-03T06:01:10.307Z,98452.30
2018-03-03T06:03:48.724Z,98454.80
2018-03-03T06:06:19.280Z,98450.38
2018-03-03T06:08:56.874Z,98457.31
2018-03-03T06:11:24.533Z,98456.78
2018-03-03T06:13:52.240Z,98457.22
2018-03-03T06:16:19.857Z,98453.83
2018-03-03T06:18:47.565Z,98445.00
2018-03-03T06:21:15.204Z,98459.56
2018-03-03T06:23:42.912Z,98456.33
2018-03-03T06:26:10.528Z,98463.89
2018-03-03T06:28:38.213Z,98461.28
2018-03-03T06:31:05.823Z,98457.66
2018-03-03T06:33:33.513Z,98456.34
2018-03-03T06:36:01.226Z,98457.28
2018-03-03T06:38:28.889Z,98464.42
2018-03-03T06:40:56.519Z,98464.81
2018-03-03T06:43:24.197Z,98456.27
2018-03-03T06:45:51.837Z,98460.01
2018-03-03T06:48:19.509Z,98463.38
2018-03-03T06:50:47.171Z,98465.99
2018-03-03T06:53:14.780Z,98466.63
2018-03-03T06:55:42.440Z,98476.03
2018-03-03T06:58:10.060Z,98461.85
2018-03-03T07:00:37.763Z,98469.35
2018-03-03T07:03:05.368Z,98471.86
2018-03-03T07:05:33.032Z,98471.28
2018-03-03T07:08:00.706Z,98472.80
2018-03-03T07:10:28.359Z,98464.73
2018-03-03T07:12:56.035Z,98466.08
2018-03-03T07:15:23.736Z,98463.11
2018-03-03T07:17:51.340Z,98464.05
2018-03-03T07:20:18.989Z,98465.97
2018-03-03T07:22:46.612Z,98463.41
2018-03-03T07:25:14.288Z,98477.10
2018-03-03T07:27:41.960Z,98481.98
2018-03-03T07:30:09.703Z,98480.94
2018-03-03T07:32:37.342Z,98480.02
2018-03-03T07:35:05.034Z,98480.39
2018-03-03T07:37:32.757Z,98469.94
2018-03-03T07:40:00.539Z,98480.80
2018-03-03T07:42:28.208Z,98482.53
2018-03-03T07:44:55.885Z,98474.23
2018-03-03T07:47:23.506Z,98482.48
2018-03-03T07:49:51.218Z,98487.02
2018-03-03T07:52:18.854Z,98482.63
2018-03-03T07:54:46.687Z,98470.95
2018-03-03T07:57:14.312Z,98476.04
2018-03-03T07:59:41.947Z,98471.18
2018-03-03T08:02:09.632Z,98472.56
2018-03-03T08:04:37.339Z,98464.27
2018-03-03T08:07:05.053Z,98467.61
2018-03-03T08:09:32.736Z,98471.97
2018-03-03T08:12:00.388Z,98474.16
2018-03-03T08:14:28.026Z,98469.72
2018-03-03T08:16:55.698Z,98473.12
2018-03-03T08:19:23.338Z,98475.86
2018-03-03T08:21:50.994Z,98479.16
2018-03-03T08:24:18.622Z,98483.38
2018-03-03T08:26:46.286Z,98482.16
2018-03-03T08:29:13.940Z,98482.66
2018-03-03T08:31:41.616Z,98489.88
2018-03-03T08:34:09.438Z,98486.34
2018-03-03T08:36:37.096Z,98487.19
2018-03-03T08:39:04.788Z,98490.14
2018-03-03T08:41:32.452Z,98490.25
2018-03-03T08:44:00.064Z,98497.80
2018-03-03T08:46:27.793Z,98498.33
2018-03-03T08:48:55.470Z,98500.73
2018-03-03T08:51:23.207Z,98499.61
2018-03-03T08:53:50.965Z,98492.44
2018-03-03T08:56:18.636Z,98485.97
2018-03-03T08:58:46.318Z,98493.56
2018-03-03T09:01:13.949Z,98489.47
2018-03-03T09:03:41.613Z,98492.86
2018-03-03T09:06:09.245Z,98494.00
2018-03-03T09:08:37.082Z,98497.15
2018-03-03T09:11:04.703Z,98495.09
2018-03-03T09:13:32.392Z,98494.09
2018-03-03T09:16:00.424Z,98496.37
2018-03-03T09:18:28.190Z,98499.18
2018-03-03T09:20:55.813Z,98501.73
2018-03-03T09:23:23.721Z,98508.82
2018-03-03T09:25:51.671Z,98508.60
2018-03-03T09:28:19.857Z,98499.23
2018-03-03T09:30:47.691Z,98502.80
2018-03-03T09:33:15.424Z,98506.58
2018-03-03T09:35:43.802Z,98501.23
2018-03-03T09:38:11.509Z,98496.36
2018-03-03T09:40:39.136Z,98495.74
2018-03-03T09:43:06.808Z,98497.77
2018-03-03T09:45:34.588Z,98486.18
2018-03-03T09:48:02.584Z,98486.95
2018-03-03T09:50:30.253Z,98488.62
2018-03-03T09:52:57.871Z,98493.87
2018-03-03T09:55:25.610Z,98487.79
2018-03-03T09:57:53.272Z,98479.70
2018-03-03T10:00:21.026Z,98492.00
2018-03-03T10:02:48.671Z,98491.17
2018-03-03T10:05:16.311Z,98490.16
2018-03-03T10:07:43.954Z,98479.91
2018-03-03T10:10:11.633Z,98487.75
2018-03-03T10:12:39.261Z,98486.20
2018-03-03T10:15:06.973Z,98485.61
2018-03-03T10:17:34.584Z,98476.94
2018-03-03T10:20:02.245Z,98471.48
2018-03-03T10:22:30.259Z,98477.03
2018-03-03T10:24:57.916Z,98472.48
2018-03-03T10:27:25.565Z,98480.08
2018-03-03T10:29:53.260Z,98478.63
2018-03-03T10:32:21.543Z,98484.61
2018-03-03T10:34:49.220Z,98477.55
2018-03-03T10:37:16.891Z,98474.86
2018-03-03T10:39:44.789Z,98471.45
2018-03-03T10:42:12.661Z,98469.56
2018-03-03T10:44:40.584Z,98462.36
2018-03-03T10:47:08.569Z,98464.42
2018-03-03T10:49:36.196Z,98468.64
2018-03-03T10:52:03.884Z,98475.45
2018-03-03T10:54:31.713Z,98464.98
2018-03-03T10:56:59.498Z,98472.50
2018-03-03T10:59:27.117Z,98467.83
2018-03-03T11:01:54.792Z,98469.45
2018-03-03T11:04:22.398Z,98468.27
2018-03-03T11:06:50.047Z,98461.71
2018-03-03T11:09:17.683Z,98462.67
2018-03-03T11:11:45.383Z,98461.30
2018-03-03T11:14:12.990Z,98461.34
2018-03-03T11:16:40.640Z,98456.69
2018-03-03T11:19:08.244Z,98451.39
2018-03-03T11:21:35.897Z,98449.58
2018-03-03T11:24:03.552Z,98446.84
2018-03-03T11:26:31.207Z,98445.85
2018-03-03T11:28:58.836Z,98448.63
2018-03-03T11:31:26.503Z,98449.88
2018-03-03T11:33:54.146Z,98450.30
2018-03-03T11:36:21.789Z,98449.08
2018-03-03T11:38:49.409Z,98454.77
2018-03-03T11:41:17.088Z,98447.39
2018-03-03T11:43:44.692Z,98448.79
2018-03-03T11:46:12.357Z,98453.59
2018-03-03T11:48:39.984Z,98461.63
2018-03-03T11:51:07.591Z,98451.45
2018-03-03T11:53:35.236Z,98451.16
2018-03-03T11:56:02.862Z,98443.66
2018-03-03T11:58:36.607Z,98452.02
2018-03-03T12:01:04.210Z,98452.75
2018-03-03T12:03:31.865Z,98456.11
2018-03-03T12:05:59.472Z,98453.02
2018-03-03T12:08:27.238Z,98441.98
2018-03-03T12:10:54.868Z,98450.72
2018-03-03T12:13:22.521Z,98460.10
2018-03-03T12:15:50.133Z,98461.83
2018-03-03T12:18:17.808Z,98455.11
2018-03-03T12:20:45.427Z,98453.16
2018-03-03T12:23:13.076Z,98448.78
2018-03-03T12:25:40.698Z,98458.50
2018-03-03T12:28:08.392Z,98455.03
2018-03-03T12:30:36.005Z,98457.12
2018-03-03T12:33:03.660Z,98455.38
2018-03-03T12:35:31.313Z,98454.84
2018-03-03T12:37:58.983Z,98461.58
2018-03-03T12:40:26.610Z,98468.29
2018-03-03T12:42:54.304Z,98473.24
2018-03-03T12:45:21.918Z,98469.87
2018-03-03T12:47:49.525Z,98473.98
2018-03-03T12:50:17.180Z,98474.81
2018-03-03T12:52:44.828Z,98471.00
2018-03-03T12:55:12.479Z,98481.71
2018-03-03T12:57:40.100Z,98478.02
2018-03-03T13:00:07.757Z,98484.75
2018-03-03T13:02:35.371Z,98470.75
2018-03-03T13:05:03.109Z,98473.33
2018-03-03T13:07:30.734Z,98471.30
2018-03-03T13:09:58.382Z,98477.97
2018-03-03T13:12:26.000Z,98489.94
2018-03-03T13:14:53.696Z,98486.55
2018-03-03T13:17:21.322Z,98486.79
2018-03-03T13:19:48.981Z,98494.05
2018-03-03T13:22:16.612Z,98499.00
2018-03-03T13:24:44.271Z,98498.95
2018-03-03T13:27:11.908Z,98495.95
2018-03-03T13:29:45.369Z,98502.47
2018-03-03T13:32:12.989Z,98498.64
2018-03-03T13:34:40.668Z,98498.39
2018-03-03T13:37:08.288Z,98499.16
2018-03-03T13:39:35.972Z,98496.67
2018-03-03T13:42:03.604Z,98502.65
2018-03-03T13:44:31.228Z,98497.27
2018-03-03T13:46:58.885Z,98502.75
2018-03-03T13:49:26.499Z,98504.02
2018-03-03T13:51:54.176Z,98498.15
2018-03-03T13:54:21.798Z,98500.66
2018-03-03T13:56:49.480Z,98499.66
2018-03-03T13:59:17.099Z,98501.67
2018-03-03T14:01:44.746Z,98505.87
2018-03-03T14:04:12.405Z,98501.01
2018-03-03T14:06:40.074Z,98509.99
2018-03-03T14:09:07.728Z,98500.37
2018-03-03T14:11:35.389Z,98513.41
2018-03-03T14:14:02.992Z,98509.95
2018-03-03T14:16:30.657Z,98510.77
2018-03-03T14:18:58.289Z,98520.59
2018-03-03T14:21:25.943Z,98517.02
2018-03-03T14:23:53.624Z,98522.87
2018-03-03T14:26:21.268Z,98522.84
2018-03-03T14:28:48.872Z,98520.21
2018-03-03T14:31:16.546Z,98529.99
2018-03-03T14:33:44.148Z,98526.60
2018-03-03T14:36:11.770Z,98524.20
2018-03-03T14:38:39.452Z,98522.31
2018-03-03T14:41:07.126Z,98525.11
2018-03-03T14:43:34.825Z,98530.09
2018-03-03T14:46:02.452Z,98527.55
2018-03-03T14:48:30.106Z,98525.90
2018-03-03T14:50:57.736Z,98528.45
2018-03-03T14:53:25.401Z,98538.02
2018-03-03T14:55:53.047Z,98526.03
2018-03-03T14:58:20.709Z,98527.25
2018-03-03T15:00:48.317Z,98535.04
2018-03-03T15:03:16.047Z,98541.84
2018-03-03T15:05:43.711Z,98537.91
2018-03-03T15:08:11.367Z,98539.22
2018-03-03T15:10:38.991Z,98538.49
2018-03-03T15:13:06.652Z,98534.44
2018-03-03T15:15:34.405Z,98542.61
2018-03-03T15:18:02.061Z,98546.34
2018-03-03T15:20:29.669Z,98549.87
2018-03-03T15:22:57.340Z,98553.95
2018-03-03T15:25:25.009Z,98558.45
2018-03-03T15:27:52.656Z,98554.77
2018-03-03T15:30:20.293Z,98556.98
2018-03-03T15:32:47.943Z,98559.41
2018-03-03T15:35:15.618Z,98559.52
2018-03-03T15:37:43.272Z,98554.05
2018-03-03T15:40:10.941Z,98549.12
2018-03-03T15:42:38.608Z,98550.81
2018-03-03T15:45:06.309Z,98544.80
2018-03-03T15:47:33.946Z,98556.91
2018-03-03T15:50:01.596Z,98553.76
2018-03-03T15:52:29.240Z,98559.54
2018-03-03T15:54:56.933Z,98564.02
2018-03-03T15:57:24.575Z,98555.47
2018-03-03T15:59:52.230Z,98565.39
2018-03-03T16:02:19.885Z,98573.68
2018-03-03T16:04:47.616Z,98578.03
2018-03-03T16:07:15.253Z,98574.94
2018-03-03T16:09:42.908Z,98585.83
2018-03-03T16:12:10.575Z,98580.59
2018-03-03T16:14:38.280Z,98577.30
2018-03-03T16:17:07.335Z,98583.75
2018-03-03T16:19:33.576Z,98575.14
2018-03-03T16:22:01.196Z,98576.86
2018-03-03T16:24:28.864Z,98579.41
2018-03-03T16:26:56.474Z,98584.34
2018-03-03T16:29:24.117Z,98583.09
2018-03-03T16:31:51.721Z,98590.30
2018-03-03T16:34:19.396Z,98594.28
2018-03-03T16:36:47.008Z,98594.05
2018-03-03T16:39:14.649Z,98604.64
2018-03-03T16:41:42.339Z,98604.19
2018-03-03T16:44:09.971Z,98601.69
2018-03-03T16:46:37.664Z,98608.90
2018-03-03T16:49:05.333Z,98611.85
2018-03-03T16:51:32.993Z,98614.61
2018-03-03T16:54:00.633Z,98616.92
2018-03-03T16:56:28.392Z,98623.78
2018-03-03T16:58:56.028Z,98626.66
2018-03-03T17:01:23.692Z,98630.67
2018-03-03T17:03:51.308Z,98623.64
2018-03-03T17:06:18.957Z,98621.52
2018-03-03T17:08:46.586Z,98626.97
2018-03-03T17:11:14.244Z,98618.14
2018-03-03T17:13:41.892Z,98623.81
2018-03-03T17:16:09.551Z,98629.58
2018-03-03T17:18:37.181Z,98630.89
2018-03-03T17:21:04.896Z,98638.01
2018-03-03T17:23:32.516Z,98640.83
2018-03-03T17:26:00.182Z,98640.86
2018-03-03T17:28:27.921Z,98644.48
2018-03-03T17:30:55.572Z,98643.07
2018-03-03T17:33:23.187Z,98653.55
2018-03-03T17:35:50.907Z,98653.77
2018-03-03T17:38:18.540Z,98655.73
2018-03-03T17:40:46.140Z,98653.55
2018-03-03T17:43:13.806Z,98659.64
2018-03-03T17:45:41.452Z,98662.91
2018-03-03T17:48:09.105Z,98661.11
2018-03-03T17:50:36.719Z,98668.06
2018-03-03T17:53:04.364Z,98664.53
2018-03-03T17:55:31.980Z,98673.52
2018-03-03T17:57:59.635Z,98679.28
2018-03-03T18:00:27.325Z,98675.18
2018-03-03T18:02:54.978Z,98678.42
2018-03-03T18:05:22.601Z,98681.82
2018-03-03T18:07:50.255Z,98685.47
2018-03-03T18:10:17.878Z,98688.20
2018-03-03T18:12:45.531Z,98676.27
2018-03-03T18:15:13.162Z,98686.27
2018-03-03T18:17:40.829Z,98678.23
2018-03-03T18:20:08.438Z,98677.30
2018-03-03T18:22:36.113Z,98681.33
2018-03-03T18:25:03.984Z,98680.66
2018-03-03T18:27:31.660Z,98677.86
2018-03-03T18:29:59.329Z,98681.87
2018-03-03T18:35:00.773Z,98677.98
2018-03-03T18:37:28.443Z,98674.80
2018-03-03T18:39:56.086Z,98675.70
2018-03-03T18:42:23.803Z,98684.20
2018-03-03T18:44:51.446Z,98684.14
2018-03-03T18:47:19.065Z,98684.48
2018-03-03T18:49:46.748Z,98685.52
2018-03-03T18:52:14.384Z,98692.15
2018-03-03T18:54:42.039Z,98693.13
2018-03-03T18:57:09.689Z,98700.33
2018-03-03T18:59:37.343Z,98698.59
2018-03-03T19:02:04.948Z,98698.22
2018-03-03T19:04:32.622Z,98695.79
2018-03-03T19:07:00.238Z,98692.85
2018-03-03T19:09:27.912Z,98697.02
2018-03-03T19:11:55.517Z,98701.77
2018-03-03T19:14:23.178Z,98690.90
2018-03-03T19:16:50.861Z,98697.33
2018-03-03T19:19:18.542Z,98701.03
2018-03-03T19:21:46.164Z,98701.78
2018-03-03T19:24:13.884Z,98706.27
2018-03-03T19:26:41.549Z,98706.86
2018-03-03T19:29:09.224Z,98711.73
2018-03-03T19:31:36.861Z,98707.74
2018-03-03T19:34:04.506Z,98710.47
2018-03-03T19:36:32.138Z,98708.33
2018-03-03T19:38:59.828Z,98715.19
2018-03-03T19:41:27.436Z,98719.00
2018-03-03T19:43:55.101Z,98726.72
2018-03-03T19:46:22.709Z,98724.31
2018-03-03T19:48:50.373Z,98724.05
2018-03-03T19:51:18.017Z,98723.92
2018-03-03T19:53:45.676Z,98723.66
2018-03-03T19:56:13.301Z,98728.30
2018-03-03T19:58:40.947Z,98727.17
2018-03-03T20:01:08.558Z,98732.52
2018-03-03T20:03:36.236Z,98729.23
2018-03-03T20:06:03.856Z,98735.55
2018-03-03T20:08:31.526Z,98738.11
2018-03-03T20:10:59.163Z,98738.38
2018-03-03T20:13:26.808Z,98744.64
2018-03-03T20:15:54.508Z,98745.23
2018-03-03T20:18:22.138Z,98747.12
2018-03-03T20:20:49.783Z,98745.48
2018-03-03T20:23:17.383Z,98746.92
2018-03-03T20:25:45.092Z,98749.52
2018-03-03T20:28:12.730Z,98750.91
2018-03-03T20:30:40.442Z,98751.94
2018-03-03T20:33:08.079Z,98755.86
2018-03-03T20:35:35.731Z,98756.46
2018-03-03T20:38:03.418Z,98760.21
2018-03-03T20:40:31.081Z,98768.73
2018-03-03T20:42:58.712Z,98767.66
2018-03-03T20:45:26.368Z,98770.94
2018-03-03T20:47:53.992Z,98770.38
2018-03-03T20:50:21.660Z,98773.18
2018-03-03T20:52:49.297Z,98767.28
2018-03-03T20:55:16.984Z,98765.07
2018-03-03T20:57:44.640Z,98757.71
2018-03-03T21:00:12.324Z,98760.52
2018-03-03T21:02:39.941Z,98758.97
2018-03-03T21:05:07.597Z,98761.20
2018-03-03T21:07:35.220Z,98763.88
2018-03-03T21:10:02.895Z,98767.57
2018-03-03T21:12:46.173Z,98762.65
2018-03-03T21:15:13.848Z,98762.33
2018-03-03T21:17:41.452Z,98758.22
2018-03-03T21:20:09.101Z,98760.34
2018-03-03T21:22:36.748Z,98754.16
2018-03-03T21:25:04.733Z,98754.38
2018-03-03T21:27:32.368Z,98752.70
2018-03-03T21:29:59.978Z,98754.66
2018-03-03T21:32:27.632Z,98754.88
2018-03-03T21:34:55.262Z,98755.33
2018-03-03T21:37:22.926Z,98755.56
2018-03-03T21:39:50.554Z,98761.75
2018-03-03T21:42:18.200Z,98760.67
2018-03-03T21:44:45.841Z,98761.52
2018-03-03T21:47:13.502Z,98767.17
2018-03-03T21:49:41.137Z,98769.34
2018-03-03T21:52:08.789Z,98770.64
2018-03-03T21:54:36.423Z,98770.53
2018-03-03T21:57:04.080Z,98774.34
2018-03-03T21:59:31.702Z,98769.74
2018-03-03T22:01:59.409Z,98767.95
2018-03-03T22:04:27.028Z,98768.91
2018-03-03T22:06:54.691Z,98771.36
2018-03-03T22:09:22.295Z,98772.48
2018-03-03T22:11:49.966Z,98772.71
2018-03-03T22:14:17.580Z,98770.52
2018-03-03T22:16:45.203Z,98771.48
2018-03-03T22:19:12.868Z,98768.39
2018-03-03T22:21:40.503Z,98767.91
2018-03-03T22:24:08.161Z,98771.95
2018-03-03T22:26:35.797Z,98772.53
2018-03-03T22:29:03.460Z,98775.72
2018-03-03T22:31:31.069Z,98769.88
2018-03-03T22:33:58.753Z,98770.39
2018-03-03T22:36:26.355Z,98782.17
2018-03-03T22:38:54.016Z,98788.50
2018-03-03T22:41:21.673Z,98781.10
2018-03-03T22:43:49.345Z,98783.52
2018-03-03T22:46:16.983Z,98787.38
2018-03-03T22:48:44.664Z,98786.95
2018-03-03T22:51:12.273Z,98788.69
2018-03-03T22:53:39.943Z,98784.80
2018-03-03T22:56:07.556Z,98780.90
2018-03-03T22:59:10.769Z,98785.91
2018-03-03T23:01:38.383Z,98793.59
2018-03-03T23:04:06.061Z,98780.70
2018-03-03T23:09:15.701Z,98786.09
2018-03-03T23:11:43.390Z,98793.53
2018-03-03T23:15:18.608Z,98788.20
2018-03-03T23:17:46.212Z,98794.90
2018-03-03T23:20:13.892Z,98794.17
2018-03-03T23:22:41.526Z,98790.57
2018-03-03T23:25:09.700Z,98787.97
2018-03-03T23:27:37.359Z,98791.80
2018-03-03T23:30:05.028Z,98793.23
2018-03-03T23:32:32.653Z,98806.64
2018-03-03T23:35:00.557Z,98799.40
2018-03-03T23:37:28.168Z,98802.27
2018-03-03T23:39:55.824Z,98797.43
2018-03-03T23:42:23.477Z,98801.36
2018-03-03T23:44:51.138Z,98794.11
2018-03-03T23:47:18.759Z,98789.52
2018-03-03T23:49:46.417Z,98794.11
2018-03-03T23:52:14.065Z,98809.92
2018-03-03T23:54:41.712Z,98815.57
2018-03-03T23:57:09.327Z,98819.40
2018-03-03T23:59:36.972Z,98833.45
